sensor_id;sensor_type;location;lat;lon;timestamp;pressure;altitude;pressure_sealevel;temperature;humidity
42591;BME280;28218;53.342;-6.216;2023-02-14T00:01:38;102631.59;;;8.40;100.00
42591;BME280;28218;53.342;-6.216;2023-02-14T00:04:07;102628.13;;;8.39;100.00
42591;BME280;28218;53.342;-6.216;2023-02-14T00:06:36;102605.53;;;8.37;100.00
42591;BME280;28218;53.342;-6.216;2023-02-14T00:09:05;102576.72;;;8.35;100.00
42591;BME280;28218;53.342;-6.216;2023-02-14T00:11:34;102596.72;;;8.38;100.00
42591;BME280;28218;53.342;-6.216;2023-02-14T00:14:02;102612.38;;;8.39;100.00
42591;BME280;28218;53.342;-6.216;2023-02-14T00:16:48;102608.78;;;8.40;100.00
42591;BME280;28218;53.342;-6.216;2023-02-14T00:19:19;102607.00;;;8.41;100.00
42591;BME280;28218;53.342;-6.216;2023-02-14T00:21:48;102602.81;;;8.38;100.00
42591;BME280;28218;53.342;-6.216;2023-02-14T00:24:18;102601.09;;;8.37;100.00
42591;BME280;28218;53.342;-6.216;2023-02-14T00:26:47;102592.47;;;8.35;100.00
42591;BME280;28218;53.342;-6.216;2023-02-14T00:29:18;102597.00;;;8.33;100.00
42591;BME280;28218;53.342;-6.216;2023-02-14T00:31:47;102597.09;;;8.32;100.00
42591;BME280;28218;53.342;-6.216;2023-02-14T00:34:17;102597.00;;;8.33;100.00
42591;BME280;28218;53.342;-6.216;2023-02-14T00:36:46;102594.47;;;8.32;100.00
42591;BME280;28218;53.342;-6.216;2023-02-14T00:39:14;102584.19;;;8.29;100.00
42591;BME280;28218;53.342;-6.216;2023-02-14T00:41:43;102588.63;;;8.28;100.00
42591;BME280;28218;53.342;-6.216;2023-02-14T00:44:12;102585.03;;;8.29;100.00
42591;BME280;28218;53.342;-6.216;2023-02-14T00:46:41;102580.81;;;8.27;100.00
42591;BME280;28218;53.342;-6.216;2023-02-14T00:49:09;102588.81;;;8.25;100.00
42591;BME280;28218;53.342;-6.216;2023-02-14T00:51:38;102592.41;;;8.24;100.00
42591;BME280;28218;53.342;-6.216;2023-02-14T00:54:07;102587.97;;;8.25;100.00
42591;BME280;28218;53.342;-6.216;2023-02-14T00:56:35;102581.91;;;8.24;100.00
42591;BME280;28218;53.342;-6.216;2023-02-14T00:59:03;102588.81;;;8.25;100.00
42591;BME280;28218;53.342;-6.216;2023-02-14T01:01:31;102582.09;;;8.21;100.00
42591;BME280;28218;53.342;-6.216;2023-02-14T01:03:59;102570.63;;;8.22;100.00
42591;BME280;28218;53.342;-6.216;2023-02-14T01:06:28;102562.75;;;8.22;100.00
42591;BME280;28218;53.342;-6.216;2023-02-14T01:08:58;102574.94;;;8.23;100.00
42591;BME280;28218;53.342;-6.216;2023-02-14T01:11:27;102562.56;;;8.25;100.00
42591;BME280;28218;53.342;-6.216;2023-02-14T01:13:56;102549.31;;;8.27;100.00
42591;BME280;28218;53.342;-6.216;2023-02-14T01:16:26;102548.25;;;8.29;100.00
42591;BME280;28218;53.342;-6.216;2023-02-14T01:18:55;102545.53;;;8.31;100.00
42591;BME280;28218;53.342;-6.216;2023-02-14T01:21:26;102537.53;;;8.32;100.00
42591;BME280;28218;53.342;-6.216;2023-02-14T01:23:58;102538.16;;;8.36;100.00
42591;BME280;28218;53.342;-6.216;2023-02-14T01:26:28;102556.34;;;8.39;100.00
42591;BME280;28218;53.342;-6.216;2023-02-14T01:28:56;102546.56;;;8.41;100.00
42591;BME280;28218;53.342;-6.216;2023-02-14T01:31:26;102549.94;;;8.43;100.00
42591;BME280;28218;53.342;-6.216;2023-02-14T01:33:56;102566.44;;;8.45;100.00
42591;BME280;28218;53.342;-6.216;2023-02-14T01:36:26;102549.72;;;8.46;100.00
42591;BME280;28218;53.342;-6.216;2023-02-14T01:38:58;102533.75;;;8.49;100.00
42591;BME280;28218;53.342;-6.216;2023-02-14T01:41:30;102536.25;;;8.51;100.00
42591;BME280;28218;53.342;-6.216;2023-02-14T01:44:00;102531.00;;;8.51;100.00
42591;BME280;28218;53.342;-6.216;2023-02-14T01:46:31;102529.81;;;8.55;100.00
42591;BME280;28218;53.342;-6.216;2023-02-14T01:49:02;102539.38;;;8.56;100.00
42591;BME280;28218;53.342;-6.216;2023-02-14T01:51:34;102540.97;;;8.58;100.00
42591;BME280;28218;53.342;-6.216;2023-02-14T01:54:07;102550.38;;;8.61;100.00
42591;BME280;28218;53.342;-6.216;2023-02-14T01:56:39;102550.38;;;8.61;100.00
42591;BME280;28218;53.342;-6.216;2023-02-14T01:59:11;102550.31;;;8.62;100.00
42591;BME280;28218;53.342;-6.216;2023-02-14T02:01:43;102552.94;;;8.62;100.00
42591;BME280;28218;53.342;-6.216;2023-02-14T02:04:14;102540.63;;;8.63;100.00
42591;BME280;28218;53.342;-6.216;2023-02-14T02:06:47;102536.31;;;8.62;100.00
42591;BME280;28218;53.342;-6.216;2023-02-14T02:09:20;102538.34;;;8.58;100.00
42591;BME280;28218;53.342;-6.216;2023-02-14T02:11:52;102535.59;;;8.60;100.00
42591;BME280;28218;53.342;-6.216;2023-02-14T02:14:21;102528.66;;;8.59;100.00
42591;BME280;28218;53.342;-6.216;2023-02-14T02:17:09;102526.97;;;8.58;100.00
42591;BME280;28218;53.342;-6.216;2023-02-14T02:23:10;102534.38;;;8.53;100.00
42591;BME280;28218;53.342;-6.216;2023-02-14T02:29:10;102522.50;;;8.47;100.00
42591;BME280;28218;53.342;-6.216;2023-02-14T02:35:19;102525.72;;;8.51;100.00
42591;BME280;28218;53.342;-6.216;2023-02-14T02:38:05;102523.59;;;8.56;100.00
42591;BME280;28218;53.342;-6.216;2023-02-14T02:40:43;102519.09;;;8.58;100.00
42591;BME280;28218;53.342;-6.216;2023-02-14T02:43:24;102522.09;;;8.64;100.00
42591;BME280;28218;53.342;-6.216;2023-02-14T02:45:59;102507.31;;;8.63;100.00
42591;BME280;28218;53.342;-6.216;2023-02-14T02:48:52;102510.56;;;8.67;100.00
42591;BME280;28218;53.342;-6.216;2023-02-14T02:51:31;102503.38;;;8.69;100.00
42591;BME280;28218;53.342;-6.216;2023-02-14T02:54:24;102488.34;;;8.71;100.00
42591;BME280;28218;53.342;-6.216;2023-02-14T02:56:58;102493.63;;;8.71;100.00
42591;BME280;28218;53.342;-6.216;2023-02-14T02:59:28;102500.75;;;8.69;100.00
42591;BME280;28218;53.342;-6.216;2023-02-14T03:02:03;102500.88;;;8.67;100.00
42591;BME280;28218;53.342;-6.216;2023-02-14T03:04:33;102503.63;;;8.66;100.00
42591;BME280;28218;53.342;-6.216;2023-02-14T03:07:29;102500.38;;;8.62;100.00
42591;BME280;28218;53.342;-6.216;2023-02-14T03:10:08;102489.75;;;8.64;100.00
42591;BME280;28218;53.342;-6.216;2023-02-14T03:13:15;102486.91;;;8.67;100.00
42591;BME280;28218;53.342;-6.216;2023-02-14T03:15:52;102504.00;;;8.73;100.00
42591;BME280;28218;53.342;-6.216;2023-02-14T03:18:34;102499.59;;;8.73;100.00
42591;BME280;28218;53.342;-6.216;2023-02-14T03:21:13;102505.47;;;8.77;100.00
42591;BME280;28218;53.342;-6.216;2023-02-14T03:23:48;102500.81;;;8.80;100.00
42591;BME280;28218;53.342;-6.216;2023-02-14T03:26:26;102494.94;;;8.77;100.00
42591;BME280;28218;53.342;-6.216;2023-02-14T03:29:00;102483.34;;;8.79;100.00
42591;BME280;28218;53.342;-6.216;2023-02-14T03:31:33;102483.13;;;8.82;100.00
42591;BME280;28218;53.342;-6.216;2023-02-14T03:34:08;102478.94;;;8.80;100.00
42591;BME280;28218;53.342;-6.216;2023-02-14T03:36:42;102464.84;;;8.81;100.00
42591;BME280;28218;53.342;-6.216;2023-02-14T03:39:20;102457.31;;;8.76;100.00
42591;BME280;28218;53.342;-6.216;2023-02-14T03:41:55;102456.00;;;8.82;100.00
42591;BME280;28218;53.342;-6.216;2023-02-14T03:44:32;102449.09;;;8.81;100.00
42591;BME280;28218;53.342;-6.216;2023-02-14T03:47:06;102447.16;;;8.83;100.00
42591;BME280;28218;53.342;-6.216;2023-02-14T03:49:38;102435.94;;;8.81;100.00
42591;BME280;28218;53.342;-6.216;2023-02-14T03:52:09;102433.91;;;8.84;100.00
42591;BME280;28218;53.342;-6.216;2023-02-14T03:54:40;102426.75;;;8.86;100.00
42591;BME280;28218;53.342;-6.216;2023-02-14T03:57:14;102420.75;;;8.84;100.00
42591;BME280;28218;53.342;-6.216;2023-02-14T03:59:43;102416.47;;;8.83;100.00
42591;BME280;28218;53.342;-6.216;2023-02-14T04:02:15;102412.38;;;8.79;100.00
42591;BME280;28218;53.342;-6.216;2023-02-14T04:04:47;102398.41;;;8.79;100.00
42591;BME280;28218;53.342;-6.216;2023-02-14T04:07:17;102393.06;;;8.80;100.00
42591;BME280;28218;53.342;-6.216;2023-02-14T04:09:48;102384.31;;;8.80;100.00
42591;BME280;28218;53.342;-6.216;2023-02-14T04:12:17;102390.19;;;8.83;100.00
42591;BME280;28218;53.342;-6.216;2023-02-14T04:15:02;102389.47;;;8.81;100.00
42591;BME280;28218;53.342;-6.216;2023-02-14T04:17:31;102378.81;;;8.83;100.00
42591;BME280;28218;53.342;-6.216;2023-02-14T04:20:17;102375.25;;;8.84;100.00
42591;BME280;28218;53.342;-6.216;2023-02-14T04:22:45;102362.22;;;8.82;100.00
42591;BME280;28218;53.342;-6.216;2023-02-14T04:25:15;102348.84;;;8.85;100.00
42591;BME280;28218;53.342;-6.216;2023-02-14T04:27:44;102351.59;;;8.84;100.00
42591;BME280;28218;53.342;-6.216;2023-02-14T04:30:13;102347.06;;;8.86;100.00
42591;BME280;28218;53.342;-6.216;2023-02-14T04:32:44;102365.13;;;8.90;100.00
42591;BME280;28218;53.342;-6.216;2023-02-14T04:35:12;102358.06;;;8.91;100.00
42591;BME280;28218;53.342;-6.216;2023-02-14T04:37:41;102343.81;;;8.93;100.00
42591;BME280;28218;53.342;-6.216;2023-02-14T04:40:10;102344.78;;;8.92;100.00
42591;BME280;28218;53.342;-6.216;2023-02-14T04:42:44;102343.13;;;8.91;100.00
42591;BME280;28218;53.342;-6.216;2023-02-14T04:45:13;102343.81;;;8.93;100.00
42591;BME280;28218;53.342;-6.216;2023-02-14T04:47:41;102337.50;;;8.96;100.00
42591;BME280;28218;53.342;-6.216;2023-02-14T04:50:10;102360.22;;;8.97;100.00
42591;BME280;28218;53.342;-6.216;2023-02-14T04:52:38;102338.13;;;9.00;100.00
42591;BME280;28218;53.342;-6.216;2023-02-14T04:55:08;102341.47;;;9.02;100.00
42591;BME280;28218;53.342;-6.216;2023-02-14T04:57:36;102332.59;;;9.03;100.00
42591;BME280;28218;53.342;-6.216;2023-02-14T05:00:07;102335.97;;;9.05;100.00
42591;BME280;28218;53.342;-6.216;2023-02-14T05:02:35;102345.66;;;9.04;100.00
42591;BME280;28218;53.342;-6.216;2023-02-14T05:05:04;102357.63;;;9.08;100.00
42591;BME280;28218;53.342;-6.216;2023-02-14T05:07:33;102357.84;;;9.05;100.00
42591;BME280;28218;53.342;-6.216;2023-02-14T05:10:02;102349.94;;;9.05;100.00
42591;BME280;28218;53.342;-6.216;2023-02-14T05:12:31;102336.81;;;9.05;100.00
42591;BME280;28218;53.342;-6.216;2023-02-14T05:14:59;102341.22;;;9.05;100.00
42591;BME280;28218;53.342;-6.216;2023-02-14T05:17:28;102339.31;;;9.07;100.00
42591;BME280;28218;53.342;-6.216;2023-02-14T05:19:57;102334.31;;;9.04;100.00
42591;BME280;28218;53.342;-6.216;2023-02-14T05:22:25;102331.53;;;9.05;100.00
42591;BME280;28218;53.342;-6.216;2023-02-14T05:24:53;102326.28;;;9.05;100.00
42591;BME280;28218;53.342;-6.216;2023-02-14T05:27:22;102328.78;;;9.07;100.00
42591;BME280;28218;53.342;-6.216;2023-02-14T05:29:50;102320.66;;;9.10;100.00
42591;BME280;28218;53.342;-6.216;2023-02-14T05:32:18;102323.31;;;9.10;100.00
42591;BME280;28218;53.342;-6.216;2023-02-14T05:34:48;102321.50;;;9.10;100.00
42591;BME280;28218;53.342;-6.216;2023-02-14T05:37:16;102308.22;;;9.12;100.00
42591;BME280;28218;53.342;-6.216;2023-02-14T05:39:44;102316.13;;;9.12;100.00
42591;BME280;28218;53.342;-6.216;2023-02-14T05:42:13;102303.56;;;9.15;100.00
42591;BME280;28218;53.342;-6.216;2023-02-14T05:44:41;102298.19;;;9.17;100.00
42591;BME280;28218;53.342;-6.216;2023-02-14T05:47:09;102298.19;;;9.17;100.00
42591;BME280;28218;53.342;-6.216;2023-02-14T05:49:38;102290.19;;;9.18;100.00
42591;BME280;28218;53.342;-6.216;2023-02-14T05:52:08;102289.34;;;9.18;100.00
42591;BME280;28218;53.342;-6.216;2023-02-14T05:54:37;102287.44;;;9.20;100.00
42591;BME280;28218;53.342;-6.216;2023-02-14T05:57:05;102275.94;;;9.21;100.00
42591;BME280;28218;53.342;-6.216;2023-02-14T05:59:33;102279.53;;;9.20;100.00
42591;BME280;28218;53.342;-6.216;2023-02-14T06:02:01;102286.38;;;9.23;100.00
42591;BME280;28218;53.342;-6.216;2023-02-14T06:04:30;102280.25;;;9.22;100.00
42591;BME280;28218;53.342;-6.216;2023-02-14T06:06:58;102281.94;;;9.23;100.00
42591;BME280;28218;53.342;-6.216;2023-02-14T06:09:28;102272.13;;;9.25;100.00
42591;BME280;28218;53.342;-6.216;2023-02-14T06:11:56;102272.84;;;9.27;100.00
42591;BME280;28218;53.342;-6.216;2023-02-14T06:14:25;102274.53;;;9.28;100.00
42591;BME280;28218;53.342;-6.216;2023-02-14T06:16:53;102279.88;;;9.27;100.00
42591;BME280;28218;53.342;-6.216;2023-02-14T06:19:21;102287.53;;;9.30;100.00
42591;BME280;28218;53.342;-6.216;2023-02-14T06:21:49;102284.06;;;9.29;100.00
42591;BME280;28218;53.342;-6.216;2023-02-14T06:24:18;102269.25;;;9.28;100.00
42591;BME280;28218;53.342;-6.216;2023-02-14T06:26:47;102261.25;;;9.30;100.00
42591;BME280;28218;53.342;-6.216;2023-02-14T06:29:16;102254.19;;;9.30;100.00
42591;BME280;28218;53.342;-6.216;2023-02-14T06:31:44;102254.31;;;9.29;100.00
42591;BME280;28218;53.342;-6.216;2023-02-14T06:34:13;102258.47;;;9.31;100.00
42591;BME280;28218;53.342;-6.216;2023-02-14T06:36:42;102253.94;;;9.33;100.00
42591;BME280;28218;53.342;-6.216;2023-02-14T06:39:10;102251.44;;;9.32;100.00
42591;BME280;28218;53.342;-6.216;2023-02-14T06:41:38;102247.72;;;9.34;100.00
42591;BME280;28218;53.342;-6.216;2023-02-14T06:44:08;102258.25;;;9.34;100.00
42591;BME280;28218;53.342;-6.216;2023-02-14T06:46:36;102252.00;;;9.35;100.00
42591;BME280;28218;53.342;-6.216;2023-02-14T06:49:04;102257.41;;;9.34;100.00
42591;BME280;28218;53.342;-6.216;2023-02-14T06:51:33;102256.44;;;9.35;100.00
42591;BME280;28218;53.342;-6.216;2023-02-14T06:54:01;102257.03;;;9.38;100.00
42591;BME280;28218;53.342;-6.216;2023-02-14T06:56:29;102252.47;;;9.40;100.00
42591;BME280;28218;53.342;-6.216;2023-02-14T06:58:57;102245.31;;;9.42;100.00
42591;BME280;28218;53.342;-6.216;2023-02-14T07:01:27;102248.66;;;9.44;100.00
42591;BME280;28218;53.342;-6.216;2023-02-14T07:03:55;102239.22;;;9.42;100.00
42591;BME280;28218;53.342;-6.216;2023-02-14T07:06:23;102236.31;;;9.45;100.00
42591;BME280;28218;53.342;-6.216;2023-02-14T07:08:52;102232.16;;;9.42;100.00
42591;BME280;28218;53.342;-6.216;2023-02-14T07:11:20;102239.78;;;9.45;100.00
42591;BME280;28218;53.342;-6.216;2023-02-14T07:13:48;102248.66;;;9.44;100.00
42591;BME280;28218;53.342;-6.216;2023-02-14T07:16:16;102245.06;;;9.45;100.00
42591;BME280;28218;53.342;-6.216;2023-02-14T07:18:46;102240.38;;;9.49;100.00
42591;BME280;28218;53.342;-6.216;2023-02-14T07:21:14;102239.31;;;9.52;100.00
42591;BME280;28218;53.342;-6.216;2023-02-14T07:23:43;102235.72;;;9.53;100.00
42591;BME280;28218;53.342;-6.216;2023-02-14T07:26:13;102241.69;;;9.55;100.00
42591;BME280;28218;53.342;-6.216;2023-02-14T07:28:44;102242.41;;;9.57;100.00
42591;BME280;28218;53.342;-6.216;2023-02-14T07:31:14;102228.75;;;9.63;100.00
42591;BME280;28218;53.342;-6.216;2023-02-14T07:33:45;102228.59;;;9.64;100.00
42591;BME280;28218;53.342;-6.216;2023-02-14T07:36:13;102235.28;;;9.68;100.00
42591;BME280;28218;53.342;-6.216;2023-02-14T07:38:42;102234.22;;;9.71;100.00
42591;BME280;28218;53.342;-6.216;2023-02-14T07:41:10;102233.13;;;9.73;100.00
42591;BME280;28218;53.342;-6.216;2023-02-14T07:43:38;102237.31;;;9.76;100.00
42591;BME280;28218;53.342;-6.216;2023-02-14T07:46:06;102233.47;;;9.80;100.00
42591;BME280;28218;53.342;-6.216;2023-02-14T07:48:34;102231.22;;;9.76;100.00
42591;BME280;28218;53.342;-6.216;2023-02-14T07:51:06;102239.69;;;9.79;100.00
42591;BME280;28218;53.342;-6.216;2023-02-14T07:53:34;102235.13;;;9.81;100.00
42591;BME280;28218;53.342;-6.216;2023-02-14T07:56:03;102229.88;;;9.81;100.00
42591;BME280;28218;53.342;-6.216;2023-02-14T07:58:31;102234.91;;;9.84;100.00
42591;BME280;28218;53.342;-6.216;2023-02-14T08:00:59;102221.59;;;9.86;100.00
42591;BME280;28218;53.342;-6.216;2023-02-14T08:03:28;102221.47;;;9.87;100.00
42591;BME280;28218;53.342;-6.216;2023-02-14T08:05:56;102216.09;;;9.89;100.00
42591;BME280;28218;53.342;-6.216;2023-02-14T08:08:27;102219.28;;;9.92;100.00
42591;BME280;28218;53.342;-6.216;2023-02-14T08:10:56;102225.50;;;9.91;100.00
42591;BME280;28218;53.342;-6.216;2023-02-14T08:13:25;102227.19;;;9.92;100.00
42591;BME280;28218;53.342;-6.216;2023-02-14T08:15:53;102231.50;;;9.93;100.00
42591;BME280;28218;53.342;-6.216;2023-02-14T08:18:35;102232.19;;;9.95;100.00
42591;BME280;28218;53.342;-6.216;2023-02-14T08:21:05;102222.41;;;9.97;100.00
42591;BME280;28218;53.342;-6.216;2023-02-14T08:23:36;102216.25;;;9.97;100.00
42591;BME280;28218;53.342;-6.216;2023-02-14T08:26:05;102217.81;;;9.99;100.00
42591;BME280;28218;53.342;-6.216;2023-02-14T08:28:33;102218.50;;;10.02;100.00
42591;BME280;28218;53.342;-6.216;2023-02-14T08:31:02;102205.94;;;10.05;100.00
42591;BME280;28218;53.342;-6.216;2023-02-14T08:33:31;102194.31;;;10.08;100.00
42591;BME280;28218;53.342;-6.216;2023-02-14T08:35:59;102199.31;;;10.11;100.00
42591;BME280;28218;53.342;-6.216;2023-02-14T08:38:28;102187.44;;;10.16;100.00
42591;BME280;28218;53.342;-6.216;2023-02-14T08:41:00;102191.59;;;10.19;100.00
42591;BME280;28218;53.342;-6.216;2023-02-14T08:43:33;102180.56;;;10.25;100.00
42591;BME280;28218;53.342;-6.216;2023-02-14T08:46:02;102176.72;;;10.29;100.00
42591;BME280;28218;53.342;-6.216;2023-02-14T08:48:30;102178.72;;;10.37;100.00
42591;BME280;28218;53.342;-6.216;2023-02-14T08:50:58;102159.16;;;10.39;100.00
42591;BME280;28218;53.342;-6.216;2023-02-14T08:53:31;102175.53;;;10.43;100.00
42591;BME280;28218;53.342;-6.216;2023-02-14T08:56:03;102171.81;;;10.45;100.00
42591;BME280;28218;53.342;-6.216;2023-02-14T08:58:32;102156.69;;;10.47;100.00
42591;BME280;28218;53.342;-6.216;2023-02-14T09:01:07;102161.00;;;10.48;100.00
42591;BME280;28218;53.342;-6.216;2023-02-14T09:03:36;102153.22;;;10.47;100.00
42591;BME280;28218;53.342;-6.216;2023-02-14T09:06:06;102157.53;;;10.48;100.00
42591;BME280;28218;53.342;-6.216;2023-02-14T09:08:35;102146.88;;;10.49;100.00
42591;BME280;28218;53.342;-6.216;2023-02-14T09:11:10;102146.88;;;10.49;100.00
42591;BME280;28218;53.342;-6.216;2023-02-14T09:13:39;102136.19;;;10.51;100.00
42591;BME280;28218;53.342;-6.216;2023-02-14T09:16:10;102134.13;;;10.55;100.00
42591;BME280;28218;53.342;-6.216;2023-02-14T09:18:39;102137.44;;;10.57;100.00
42591;BME280;28218;53.342;-6.216;2023-02-14T09:21:09;102137.06;;;10.61;100.00
42591;BME280;28218;53.342;-6.216;2023-02-14T09:23:38;102135.41;;;10.60;100.00
42591;BME280;28218;53.342;-6.216;2023-02-14T09:26:09;102121.81;;;10.65;100.00
42591;BME280;28218;53.342;-6.216;2023-02-14T09:28:38;102124.31;;;10.66;100.00
42591;BME280;28218;53.342;-6.216;2023-02-14T09:31:08;102120.28;;;10.72;100.00
42591;BME280;28218;53.342;-6.216;2023-02-14T09:33:37;102125.56;;;10.72;100.00
42591;BME280;28218;53.342;-6.216;2023-02-14T09:36:06;102135.28;;;10.71;100.00
42591;BME280;28218;53.342;-6.216;2023-02-14T09:38:52;102115.03;;;10.72;100.00
42591;BME280;28218;53.342;-6.216;2023-02-14T09:44:30;102129.16;;;10.61;100.00
42591;BME280;28218;53.342;-6.216;2023-02-14T09:47:05;102144.03;;;10.72;100.00
42591;BME280;28218;53.342;-6.216;2023-02-14T09:49:36;102129.38;;;10.89;100.00
42591;BME280;28218;53.342;-6.216;2023-02-14T09:52:10;102132.03;;;11.08;100.00
42591;BME280;28218;53.342;-6.216;2023-02-14T09:54:44;102118.44;;;11.32;100.00
42591;BME280;28218;53.342;-6.216;2023-02-14T09:57:21;102095.06;;;11.57;100.00
42591;BME280;28218;53.342;-6.216;2023-02-14T09:59:55;102093.53;;;11.73;100.00
42591;BME280;28218;53.342;-6.216;2023-02-14T10:02:36;102098.69;;;11.85;100.00
42591;BME280;28218;53.342;-6.216;2023-02-14T10:05:11;102098.13;;;11.91;100.00
42591;BME280;28218;53.342;-6.216;2023-02-14T10:07:55;102096.16;;;11.93;100.00
42591;BME280;28218;53.342;-6.216;2023-02-14T10:10:27;102097.56;;;11.87;100.00
42591;BME280;28218;53.342;-6.216;2023-02-14T10:13:04;102098.13;;;11.81;100.00
42591;BME280;28218;53.342;-6.216;2023-02-14T10:15:38;102099.81;;;11.82;100.00
42591;BME280;28218;53.342;-6.216;2023-02-14T10:18:12;102095.91;;;11.86;100.00
42591;BME280;28218;53.342;-6.216;2023-02-14T10:20:43;102081.13;;;11.93;100.00
42591;BME280;28218;53.342;-6.216;2023-02-14T10:23:19;102098.25;;;11.89;100.00
42591;BME280;28218;53.342;-6.216;2023-02-14T10:25:53;102096.59;;;11.88;100.00
42591;BME280;28218;53.342;-6.216;2023-02-14T10:28:30;102107.97;;;11.79;100.00
42591;BME280;28218;53.342;-6.216;2023-02-14T10:31:10;102111.31;;;11.71;100.00
42591;BME280;28218;53.342;-6.216;2023-02-14T10:33:46;102107.84;;;11.71;100.00
42591;BME280;28218;53.342;-6.216;2023-02-14T10:36:25;102104.94;;;11.74;100.00
42591;BME280;28218;53.342;-6.216;2023-02-14T10:39:00;102106.59;;;11.85;100.00
42591;BME280;28218;53.342;-6.216;2023-02-14T10:41:39;102129.00;;;11.90;100.00
42591;BME280;28218;53.342;-6.216;2023-02-14T10:44:24;102128.69;;;11.93;100.00
42591;BME280;28218;53.342;-6.216;2023-02-14T10:47:02;102142.16;;;12.10;100.00
42591;BME280;28218;53.342;-6.216;2023-02-14T10:49:39;102145.28;;;12.23;100.00
42591;BME280;28218;53.342;-6.216;2023-02-14T10:52:17;102139.97;;;12.33;100.00
42591;BME280;28218;53.342;-6.216;2023-02-14T10:54:51;102145.53;;;12.39;100.00
42591;BME280;28218;53.342;-6.216;2023-02-14T10:57:26;102136.31;;;12.43;100.00
42591;BME280;28218;53.342;-6.216;2023-02-14T10:59:59;102135.34;;;12.44;100.00
42591;BME280;28218;53.342;-6.216;2023-02-14T11:02:31;102141.44;;;12.45;100.00
42591;BME280;28218;53.342;-6.216;2023-02-14T11:05:02;102137.69;;;12.47;100.00
42591;BME280;28218;53.342;-6.216;2023-02-14T11:07:31;102140.19;;;12.49;100.00
42591;BME280;28218;53.342;-6.216;2023-02-14T11:10:00;102130.66;;;12.66;100.00
42591;BME280;28218;53.342;-6.216;2023-02-14T11:12:34;102140.03;;;12.78;100.00
42591;BME280;28218;53.342;-6.216;2023-02-14T11:15:19;102138.03;;;12.90;100.00
42591;BME280;28218;53.342;-6.216;2023-02-14T11:17:49;102137.44;;;12.96;100.00
42591;BME280;28218;53.342;-6.216;2023-02-14T11:20:34;102147.19;;;12.95;100.00
42591;BME280;28218;53.342;-6.216;2023-02-14T11:23:16;102159.38;;;12.78;100.00
42591;BME280;28218;53.342;-6.216;2023-02-14T11:25:49;102158.38;;;12.62;100.00
42591;BME280;28218;53.342;-6.216;2023-02-14T11:28:18;102170.09;;;12.49;100.00
42591;BME280;28218;53.342;-6.216;2023-02-14T11:30:49;102172.53;;;12.33;100.00
42591;BME280;28218;53.342;-6.216;2023-02-14T11:33:31;102169.06;;;12.23;100.00
42591;BME280;28218;53.342;-6.216;2023-02-14T11:36:02;102188.16;;;12.17;100.00
42591;BME280;28218;53.342;-6.216;2023-02-14T11:38:33;102180.09;;;12.09;100.00
42591;BME280;28218;53.342;-6.216;2023-02-14T11:41:05;102173.56;;;12.03;100.00
42591;BME280;28218;53.342;-6.216;2023-02-14T11:43:39;102175.66;;;11.99;100.00
42591;BME280;28218;53.342;-6.216;2023-02-14T11:46:15;102181.94;;;11.89;100.00
42591;BME280;28218;53.342;-6.216;2023-02-14T11:49:02;102166.81;;;11.91;100.00
42591;BME280;28218;53.342;-6.216;2023-02-14T11:51:33;102173.00;;;11.99;100.00
42591;BME280;28218;53.342;-6.216;2023-02-14T11:54:04;102157.03;;;12.11;100.00
42591;BME280;28218;53.342;-6.216;2023-02-14T11:56:45;102156.84;;;12.22;100.00
42591;BME280;28218;53.342;-6.216;2023-02-14T11:59:24;102150.25;;;12.36;100.00
42591;BME280;28218;53.342;-6.216;2023-02-14T12:01:55;102136.56;;;12.50;100.00
42591;BME280;28218;53.342;-6.216;2023-02-14T12:04:32;102141.81;;;12.60;100.00
42591;BME280;28218;53.342;-6.216;2023-02-14T12:07:14;102133.97;;;12.68;100.00
42591;BME280;28218;53.342;-6.216;2023-02-14T12:09:44;102125.53;;;12.82;100.00
42591;BME280;28218;53.342;-6.216;2023-02-14T12:12:24;102117.94;;;12.97;100.00
42591;BME280;28218;53.342;-6.216;2023-02-14T12:15:20;102119.00;;;13.04;100.00
42591;BME280;28218;53.342;-6.216;2023-02-14T12:17:55;102103.56;;;13.17;100.00
42591;BME280;28218;53.342;-6.216;2023-02-14T12:20:31;102103.53;;;13.27;100.00
42591;BME280;28218;53.342;-6.216;2023-02-14T12:23:04;102091.50;;;13.33;100.00
42591;BME280;28218;53.342;-6.216;2023-02-14T12:25:41;102098.28;;;13.35;100.00
42591;BME280;28218;53.342;-6.216;2023-02-14T12:28:17;102097.63;;;13.33;100.00
42591;BME280;28218;53.342;-6.216;2023-02-14T12:30:48;102098.09;;;13.28;100.00
42591;BME280;28218;53.342;-6.216;2023-02-14T12:33:20;102104.09;;;13.21;100.00
42591;BME280;28218;53.342;-6.216;2023-02-14T12:35:53;102105.69;;;13.14;100.00
42591;BME280;28218;53.342;-6.216;2023-02-14T12:38:37;102110.47;;;13.10;100.00
42591;BME280;28218;53.342;-6.216;2023-02-14T12:41:20;102107.59;;;13.03;100.00
42591;BME280;28218;53.342;-6.216;2023-02-14T12:43:52;102120.13;;;13.01;100.00
42591;BME280;28218;53.342;-6.216;2023-02-14T12:46:41;102124.75;;;12.99;100.00
42591;BME280;28218;53.342;-6.216;2023-02-14T12:52:32;102127.53;;;12.98;100.00
42591;BME280;28218;53.342;-6.216;2023-02-14T12:55:35;102130.16;;;12.98;100.00
42591;BME280;28218;53.342;-6.216;2023-02-14T12:58:17;102115.72;;;12.92;100.00
42591;BME280;28218;53.342;-6.216;2023-02-14T13:00:55;102115.06;;;12.90;100.00
42591;BME280;28218;53.342;-6.216;2023-02-14T13:03:57;102111.03;;;12.86;100.00
42591;BME280;28218;53.342;-6.216;2023-02-14T13:06:34;102101.56;;;12.84;100.00
42591;BME280;28218;53.342;-6.216;2023-02-14T13:09:12;102109.38;;;12.85;100.00
42591;BME280;28218;53.342;-6.216;2023-02-14T13:11:50;102101.06;;;12.80;100.00
42591;BME280;28218;53.342;-6.216;2023-02-14T13:14:39;102107.03;;;12.82;100.00
42591;BME280;28218;53.342;-6.216;2023-02-14T13:17:16;102094.09;;;12.79;100.00
42591;BME280;28218;53.342;-6.216;2023-02-14T13:19:52;102103.28;;;12.75;100.00